createdAt,value
2022-08-03T00:01:31.692Z,16.25
2022-08-03T00:03:59.132Z,16.40
2022-08-03T00:06:26.295Z,16.26
2022-08-03T00:08:53.373Z,16.38
2022-08-03T00:11:20.778Z,16.31
2022-08-03T00:13:47.847Z,16.40
2022-08-03T00:16:15.039Z,16.34
2022-08-03T00:18:42.658Z,16.32
2022-08-03T00:21:10.060Z,16.32
2022-08-03T00:23:52.248Z,16.38
2022-08-03T00:26:22.110Z,16.36
2022-08-03T00:28:49.675Z,16.43
2022-08-03T00:31:16.907Z,16.16
2022-08-03T00:33:59.150Z,15.76
2022-08-03T00:36:28.749Z,15.73
2022-08-03T00:38:56.572Z,15.67
2022-08-03T00:41:23.961Z,15.57
2022-08-03T00:43:51.170Z,15.55
2022-08-03T00:46:21.680Z,15.76
2022-08-03T00:48:53.740Z,15.76
2022-08-03T00:51:21.837Z,15.95
2022-08-03T00:53:49.826Z,15.84
2022-08-03T00:56:17.336Z,15.82
2022-08-03T00:58:45.497Z,15.80
2022-08-03T01:01:12.962Z,15.74
2022-08-03T01:03:40.371Z,15.64
2022-08-03T01:06:13.415Z,15.68
2022-08-03T01:09:00.718Z,15.66
2022-08-03T01:11:59.956Z,15.72
2022-08-03T01:14:32.696Z,15.43
2022-08-03T01:17:21.437Z,15.63
2022-08-03T01:20:00.718Z,15.66
2022-08-03T01:22:40.595Z,15.50
2022-08-03T01:25:19.437Z,15.39
2022-08-03T01:28:05.217Z,15.11
2022-08-03T01:30:33.652Z,15.21
2022-08-03T01:33:04.940Z,15.39
2022-08-03T01:35:32.399Z,15.45
2022-08-03T01:38:04.810Z,15.40
2022-08-03T01:40:34.623Z,15.24
2022-08-03T01:43:03.295Z,15.20
2022-08-03T01:45:34.302Z,15.33
2022-08-03T01:48:02.167Z,15.08
2022-08-03T01:50:31.032Z,15.10
2022-08-03T01:52:59.299Z,14.94
2022-08-03T01:55:32.096Z,14.80
2022-08-03T01:58:04.898Z,14.73
2022-08-03T02:00:35.695Z,14.82
2022-08-03T02:03:05.331Z,14.99
2022-08-03T02:05:32.985Z,15.02
2022-08-03T02:08:00.971Z,14.92
2022-08-03T02:10:34.600Z,14.90
2022-08-03T02:13:04.550Z,14.91
2022-08-03T02:15:33.746Z,14.77
2022-08-03T02:18:02.068Z,14.52
2022-08-03T02:20:33.288Z,14.24
2022-08-03T02:23:00.772Z,14.34
2022-08-03T02:25:28.792Z,14.47
2022-08-03T02:27:58.114Z,14.57
2022-08-03T02:30:29.998Z,14.80
2022-08-03T02:32:58.129Z,14.85
2022-08-03T02:35:27.598Z,14.89
2022-08-03T02:37:58.442Z,14.80
2022-08-03T02:40:28.277Z,14.75
2022-08-03T02:42:58.051Z,14.89
2022-08-03T02:45:27.104Z,14.55
2022-08-03T02:47:57.126Z,14.14
2022-08-03T02:50:25.422Z,14.08
2022-08-03T02:52:54.221Z,14.17
2022-08-03T02:55:23.055Z,14.31
2022-08-03T02:57:51.024Z,14.30
2022-08-03T03:00:27.687Z,14.64
2022-08-03T03:02:59.595Z,14.02
2022-08-03T03:05:56.116Z,14.23
2022-08-03T03:08:17.922Z,14.16
2022-08-03T03:10:47.384Z,14.24
2022-08-03T03:13:15.679Z,14.15
2022-08-03T03:15:45.373Z,14.14
2022-08-03T03:18:13.173Z,14.32
2022-08-03T03:20:41.220Z,13.94
2022-08-03T03:23:09.444Z,13.70
2022-08-03T03:25:38.000Z,13.90
2022-08-03T03:28:06.600Z,14.16
2022-08-03T03:30:34.495Z,14.05
2022-08-03T03:33:03.043Z,14.31
2022-08-03T03:35:30.265Z,14.12
2022-08-03T03:37:58.068Z,13.82
2022-08-03T03:40:25.651Z,14.05
2022-08-03T03:42:53.005Z,13.97
2022-08-03T03:45:21.099Z,13.83
2022-08-03T03:47:48.635Z,13.88
2022-08-03T03:50:16.032Z,13.92
2022-08-03T03:52:43.243Z,13.99
2022-08-03T03:55:10.913Z,13.79
2022-08-03T03:57:38.159Z,13.99
2022-08-03T04:00:06.359Z,14.07
2022-08-03T04:02:33.351Z,14.00
2022-08-03T04:05:19.416Z,14.13
2022-08-03T04:08:14.672Z,14.05
2022-08-03T04:10:58.794Z,14.21
2022-08-03T04:13:32.283Z,14.19
2022-08-03T04:16:00.108Z,14.07
2022-08-03T04:18:28.352Z,13.82
2022-08-03T04:20:57.347Z,13.75
2022-08-03T04:23:26.858Z,13.96
2022-08-03T04:25:54.994Z,14.06
2022-08-03T04:28:30.468Z,14.13
2022-08-03T04:31:03.677Z,14.27
2022-08-03T04:33:32.752Z,14.12
2022-08-03T04:36:03.615Z,14.26
2022-08-03T04:38:38.199Z,13.96
2022-08-03T04:41:06.752Z,13.93
2022-08-03T04:43:34.808Z,14.16
2022-08-03T04:46:02.949Z,14.45
2022-08-03T04:48:30.486Z,14.48
2022-08-03T04:50:57.756Z,14.69
2022-08-03T04:53:25.004Z,14.76
2022-08-03T04:55:52.547Z,14.82
2022-08-03T04:58:19.699Z,15.06
2022-08-03T05:00:51.173Z,15.23
2022-08-03T05:03:20.309Z,15.21
2022-08-03T05:05:52.325Z,15.35
2022-08-03T05:08:28.021Z,15.41
2022-08-03T05:10:58.905Z,15.63
2022-08-03T05:13:27.112Z,15.75
2022-08-03T05:15:54.298Z,15.90
2022-08-03T05:18:21.584Z,16.01
2022-08-03T05:20:49.201Z,16.04
2022-08-03T05:23:16.465Z,16.22
2022-08-03T05:25:49.698Z,16.27
2022-08-03T05:28:17.929Z,16.42
2022-08-03T05:30:45.829Z,16.57
2022-08-03T05:33:13.099Z,16.82
2022-08-03T05:35:57.265Z,16.63
2022-08-03T05:38:28.761Z,16.70
2022-08-03T05:41:22.475Z,16.83
2022-08-03T05:43:50.488Z,16.91
2022-08-03T05:46:18.288Z,17.18
2022-08-03T05:48:45.724Z,16.73
2022-08-03T05:51:13.757Z,17.13
2022-08-03T05:53:42.170Z,17.43
2022-08-03T05:56:13.746Z,17.32
2022-08-03T05:58:43.785Z,17.47
2022-08-03T06:01:11.037Z,17.62
2022-08-03T06:03:38.713Z,17.33
2022-08-03T06:06:05.934Z,17.56
2022-08-03T06:08:33.253Z,17.75
2022-08-03T06:11:00.859Z,18.02
2022-08-03T06:13:28.023Z,18.24
2022-08-03T06:15:55.574Z,18.47
2022-08-03T06:18:24.747Z,18.72
2022-08-03T06:20:52.460Z,18.99
2022-08-03T06:23:20.039Z,19.09
2022-08-03T06:25:47.817Z,19.42
2022-08-03T06:28:42.635Z,19.65
2022-08-03T06:31:03.751Z,19.56
2022-08-03T06:34:30.417Z,19.67
2022-08-03T06:36:21.410Z,19.98
2022-08-03T06:38:48.670Z,20.24
2022-08-03T06:41:15.955Z,20.10
2022-08-03T06:44:02.590Z,20.40
2022-08-03T06:46:30.935Z,20.69
2022-08-03T06:48:58.495Z,21.07
2022-08-03T06:52:06.154Z,21.14
2022-08-03T06:54:13.828Z,21.16
2022-08-03T06:56:41.030Z,21.15
2022-08-03T06:59:08.199Z,21.32
2022-08-03T07:01:35.788Z,21.57
2022-08-03T07:04:03.142Z,21.49
2022-08-03T07:06:31.728Z,21.97
2022-08-03T07:08:59.984Z,22.14
2022-08-03T07:11:28.801Z,22.26
2022-08-03T07:13:56.654Z,22.08
2022-08-03T07:16:24.225Z,22.28
2022-08-03T07:18:51.529Z,22.46
2022-08-03T07:21:18.687Z,22.44
2022-08-03T07:23:46.188Z,22.74
2022-08-03T07:26:13.531Z,22.59
2022-08-03T07:28:40.849Z,22.69
2022-08-03T07:31:08.378Z,23.08
2022-08-03T07:33:35.524Z,23.41
2022-08-03T07:36:02.772Z,23.45
2022-08-03T07:38:30.366Z,23.39
2022-08-03T07:40:57.786Z,23.33
2022-08-03T07:43:25.475Z,23.83
2022-08-03T07:45:53.087Z,24.07
2022-08-03T07:48:20.243Z,24.32
2022-08-03T07:50:47.633Z,24.34
2022-08-03T07:53:15.140Z,24.51
2022-08-03T07:55:42.604Z,24.67
2022-08-03T07:58:12.560Z,24.72
2022-08-03T08:00:40.249Z,24.75
2022-08-03T08:03:08.036Z,24.89
2022-08-03T08:05:35.283Z,25.23
2022-08-03T08:08:02.992Z,25.07
2022-08-03T08:10:30.509Z,25.03
2022-08-03T08:12:57.840Z,25.10
2022-08-03T08:15:25.368Z,25.18
2022-08-03T08:17:54.718Z,25.03
2022-08-03T08:20:28.452Z,25.35
2022-08-03T08:23:03.573Z,25.59
2022-08-03T08:25:39.611Z,25.64
2022-08-03T08:28:28.994Z,25.54
2022-08-03T08:30:54.414Z,25.57
2022-08-03T08:33:23.481Z,25.24
2022-08-03T08:35:52.044Z,24.77
2022-08-03T08:38:19.393Z,25.06
2022-08-03T08:40:47.919Z,25.23
2022-08-03T08:43:15.197Z,25.12
2022-08-03T08:45:42.673Z,25.24
2022-08-03T08:48:11.213Z,25.58
2022-08-03T08:50:39.052Z,25.73
2022-08-03T08:53:09.855Z,25.80
2022-08-03T08:55:58.789Z,25.62
2022-08-03T08:58:28.818Z,25.42
2022-08-03T09:00:56.472Z,25.22
2022-08-03T09:03:29.304Z,25.42
2022-08-03T09:06:00.198Z,25.59
2022-08-03T09:08:27.478Z,25.66
2022-08-03T09:10:54.660Z,25.87
2022-08-03T09:13:22.193Z,26.49
2022-08-03T09:15:52.741Z,26.73
2022-08-03T09:18:32.322Z,26.62
2022-08-03T09:21:36.018Z,26.10
2022-08-03T09:24:06.278Z,26.05
2022-08-03T09:26:37.301Z,26.23
2022-08-03T09:29:12.850Z,26.62
2022-08-03T09:31:44.323Z,27.09
2022-08-03T09:34:17.145Z,27.17
2022-08-03T09:36:45.999Z,27.18
2022-08-03T09:39:14.804Z,27.18
2022-08-03T09:41:44.601Z,27.64
2022-08-03T09:44:25.157Z,27.93
2022-08-03T09:46:56.863Z,27.96
2022-08-03T09:49:25.342Z,27.99
2022-08-03T09:52:32.900Z,28.22
2022-08-03T09:54:41.259Z,28.41
2022-08-03T09:57:08.680Z,28.15
2022-08-03T09:59:36.149Z,28.38
2022-08-03T10:02:20.447Z,28.47
2022-08-03T10:04:49.033Z,28.41
2022-08-03T10:07:16.495Z,28.60
2022-08-03T10:09:57.453Z,28.76
2022-08-03T10:12:25.356Z,28.80
2022-08-03T10:14:53.018Z,28.61
2022-08-03T10:17:23.647Z,28.95
2022-08-03T10:19:51.224Z,28.98
2022-08-03T10:22:26.925Z,28.94
2022-08-03T10:25:02.937Z,28.89
2022-08-03T10:27:51.287Z,29.49
2022-08-03T10:30:18.915Z,28.84
2022-08-03T10:33:00.252Z,28.95
2022-08-03T10:35:29.749Z,29.39
2022-08-03T10:38:08.294Z,29.95
2022-08-03T10:40:57.244Z,29.99
2022-08-03T10:43:34.236Z,29.54
2022-08-03T10:46:03.612Z,29.48
2022-08-03T10:48:31.627Z,29.54
2022-08-03T10:50:58.925Z,29.58
2022-08-03T10:53:40.527Z,29.86
2022-08-03T10:56:49.852Z,30.12
2022-08-03T10:59:27.583Z,29.94
2022-08-03T11:01:59.813Z,30.11
2022-08-03T11:04:30.368Z,29.89
2022-08-03T11:07:18.485Z,29.86
2022-08-03T11:09:50.692Z,29.85
2022-08-03T11:12:37.499Z,29.62
2022-08-03T11:15:07.139Z,29.26
2022-08-03T11:17:45.781Z,28.92
2022-08-03T11:20:52.430Z,28.97
2022-08-03T11:24:03.264Z,29.09
2022-08-03T11:26:29.029Z,29.33
2022-08-03T11:29:16.123Z,28.99
2022-08-03T11:31:50.385Z,29.28
2022-08-03T11:34:18.309Z,29.92
2022-08-03T11:37:12.100Z,29.72
2022-08-03T11:39:46.750Z,30.09
2022-08-03T11:42:23.542Z,29.22
2022-08-03T11:44:51.140Z,28.63
2022-08-03T11:47:20.545Z,27.48
2022-08-03T11:49:48.466Z,27.53
2022-08-03T11:52:16.693Z,26.74
2022-08-03T11:54:44.983Z,26.70
2022-08-03T11:57:12.639Z,26.80
2022-08-03T11:59:39.887Z,26.39
2022-08-03T12:02:08.184Z,26.75
2022-08-03T12:04:58.441Z,27.22
2022-08-03T12:08:04.759Z,27.76
2022-08-03T12:10:15.874Z,27.37
2022-08-03T12:12:46.287Z,27.24
2022-08-03T12:15:14.079Z,27.63
2022-08-03T12:17:41.919Z,28.19
2022-08-03T12:20:10.066Z,28.50
2022-08-03T12:22:39.300Z,28.33
2022-08-03T12:25:07.513Z,28.21
2022-08-03T12:27:35.470Z,28.37
2022-08-03T12:30:03.199Z,28.34
2022-08-03T12:32:31.485Z,28.54
2022-08-03T12:35:04.695Z,28.29
2022-08-03T12:37:32.668Z,28.28
2022-08-03T12:40:09.467Z,28.20
2022-08-03T12:42:39.268Z,27.97
2022-08-03T12:45:19.501Z,28.03
2022-08-03T12:48:00.671Z,27.74
2022-08-03T12:50:32.291Z,27.59
2022-08-03T12:53:00.724Z,26.95
2022-08-03T12:55:56.529Z,26.23
2022-08-03T12:58:34.227Z,26.16
2022-08-03T13:01:04.992Z,25.61
2022-08-03T13:03:42.301Z,25.54
2022-08-03T13:06:17.174Z,25.23
2022-08-03T13:08:46.173Z,25.12
2022-08-03T13:11:57.954Z,25.32
2022-08-03T13:14:16.827Z,25.36
2022-08-03T13:16:48.588Z,25.38
2022-08-03T13:19:16.307Z,25.41
2022-08-03T13:22:01.674Z,25.75
2022-08-03T13:24:32.340Z,25.73
2022-08-03T13:27:00.024Z,25.86
2022-08-03T13:29:27.244Z,25.75
2022-08-03T13:31:55.965Z,25.66
2022-08-03T13:34:24.123Z,25.80
2022-08-03T13:37:09.233Z,25.87
2022-08-03T13:39:58.078Z,25.81
2022-08-03T13:42:28.300Z,25.98
2022-08-03T13:44:55.943Z,26.26
2022-08-03T13:47:23.357Z,26.35
2022-08-03T13:50:00.287Z,26.29
2022-08-03T13:52:32.048Z,26.25
2022-08-03T13:55:00.161Z,25.98
2022-08-03T13:58:03.905Z,26.08
2022-08-03T14:00:26.461Z,26.22
2022-08-03T14:03:15.315Z,26.29
2022-08-03T14:05:44.251Z,26.49
2022-08-03T14:08:12.345Z,26.95
2022-08-03T14:10:40.824Z,26.84
2022-08-03T14:13:08.226Z,26.81
2022-08-03T14:15:37.537Z,26.82
2022-08-03T14:18:12.780Z,26.81
2022-08-03T14:20:48.759Z,26.61
2022-08-03T14:23:18.963Z,26.51
2022-08-03T14:25:51.629Z,26.37
2022-08-03T14:28:23.810Z,26.33
2022-08-03T14:30:52.087Z,26.27
2022-08-03T14:33:19.405Z,26.33
2022-08-03T14:35:46.636Z,26.73
2022-08-03T14:38:14.419Z,26.88
2022-08-03T14:40:41.860Z,27.09
2022-08-03T14:43:09.313Z,27.12
2022-08-03T14:45:36.876Z,26.92
2022-08-03T14:50:32.570Z,26.58
2022-08-03T14:50:55.647Z,26.52
2022-08-03T14:53:23.183Z,26.64
2022-08-03T14:55:51.915Z,26.71
2022-08-03T14:58:21.443Z,26.69
2022-08-03T15:00:49.949Z,26.81
2022-08-03T15:03:17.706Z,26.83
2022-08-03T15:05:45.555Z,26.95
2022-08-03T15:08:12.864Z,26.77
2022-08-03T15:10:44.209Z,26.63
2022-08-03T15:13:16.390Z,26.84
2022-08-03T15:15:43.678Z,27.22
2022-08-03T15:18:11.079Z,27.26
2022-08-03T15:20:45.008Z,27.19
2022-08-03T15:23:14.459Z,26.75
2022-08-03T15:26:07.093Z,27.15
2022-08-03T15:28:30.264Z,28.60
2022-08-03T15:30:57.930Z,29.89
2022-08-03T15:33:26.335Z,29.60
2022-08-03T15:35:53.866Z,29.33
2022-08-03T15:38:26.195Z,28.56
2022-08-03T15:40:57.188Z,27.97
2022-08-03T15:43:25.090Z,27.27
2022-08-03T15:46:19.456Z,27.16
2022-08-03T15:48:42.040Z,26.80
2022-08-03T15:51:09.406Z,26.30
2022-08-03T15:53:37.279Z,26.35
2022-08-03T15:56:10.444Z,26.23
2022-08-03T15:59:10.003Z,26.19
2022-08-03T16:01:27.836Z,25.72
2022-08-03T16:03:55.494Z,25.25
2022-08-03T16:06:29.807Z,25.36
2022-08-03T16:09:24.000Z,24.99
2022-08-03T16:11:54.433Z,24.61
2022-08-03T16:14:34.818Z,24.54
2022-08-03T16:17:05.197Z,24.14
2022-08-03T16:19:32.801Z,23.85
2022-08-03T16:22:00.887Z,23.55
2022-08-03T16:24:28.440Z,22.90
2022-08-03T16:26:56.613Z,22.89
2022-08-03T16:29:24.153Z,22.52
2022-08-03T16:31:52.453Z,22.33
2022-08-03T16:34:21.247Z,22.31
2022-08-03T16:36:48.549Z,22.30
2022-08-03T16:39:15.910Z,22.24
2022-08-03T16:41:54.244Z,22.14
2022-08-03T16:44:29.785Z,22.12
2022-08-03T16:46:57.876Z,21.85
2022-08-03T16:49:54.939Z,21.99
2022-08-03T16:52:13.091Z,21.90
2022-08-03T16:54:40.864Z,21.69
2022-08-03T16:57:08.654Z,21.61
2022-08-03T16:59:37.043Z,21.53
2022-08-03T17:02:09.880Z,21.62
2022-08-03T17:04:40.118Z,21.74
2022-08-03T17:07:08.745Z,21.81
2022-08-03T17:09:38.205Z,22.10
2022-08-03T17:12:10.877Z,21.94
2022-08-03T17:14:38.964Z,21.86
2022-08-03T17:17:09.666Z,21.86
2022-08-03T17:19:47.494Z,22.07
2022-08-03T17:22:24.799Z,22.33
2022-08-03T17:24:52.867Z,22.46
2022-08-03T17:28:48.572Z,22.24
2022-08-03T17:30:13.362Z,21.89
2022-08-03T17:32:42.762Z,21.99
2022-08-03T17:35:11.070Z,22.04
2022-08-03T17:37:57.996Z,22.02
2022-08-03T17:40:26.086Z,22.01
2022-08-03T17:42:54.289Z,22.24
2022-08-03T17:45:21.523Z,22.16
2022-08-03T17:47:57.414Z,22.15
2022-08-03T17:50:32.976Z,22.20
2022-08-03T17:56:07.726Z,22.10
2022-08-03T17:59:01.905Z,21.84
2022-08-03T18:02:20.939Z,21.54
2022-08-03T18:05:16.557Z,21.70
2022-08-03T18:08:01.514Z,21.26
2022-08-03T18:10:49.708Z,21.20
2022-08-03T18:13:24.709Z,21.02
2022-08-03T18:15:53.729Z,20.90
2022-08-03T18:18:32.530Z,21.13
2022-08-03T18:21:09.325Z,21.21
2022-08-03T18:23:45.008Z,21.12
2022-08-03T18:26:18.162Z,21.05
2022-08-03T18:28:45.417Z,20.72
2022-08-03T18:31:59.933Z,20.74
2022-08-03T18:34:18.951Z,20.70
2022-08-03T18:36:56.487Z,20.72
2022-08-03T18:39:25.814Z,20.85
2022-08-03T18:41:53.794Z,20.67
2022-08-03T18:44:52.792Z,20.85
2022-08-03T18:47:23.802Z,20.82
2022-08-03T18:49:58.837Z,20.48
2022-08-03T18:52:31.886Z,20.44
2022-08-03T18:58:02.071Z,20.34
2022-08-03T19:00:42.457Z,20.18
2022-08-03T19:03:23.709Z,20.43
2022-08-03T19:06:09.474Z,20.33
2022-08-03T19:08:49.470Z,20.10
2022-08-03T19:11:22.226Z,19.91
2022-08-03T19:13:56.877Z,19.94
2022-08-03T19:16:30.694Z,19.94
2022-08-03T19:19:00.383Z,19.90
2022-08-03T19:21:29.805Z,19.61
2022-08-03T19:24:00.459Z,19.73
2022-08-03T19:26:31.120Z,19.85
2022-08-03T19:29:01.545Z,19.60
2022-08-03T19:31:34.811Z,19.58
2022-08-03T19:34:04.669Z,19.71
2022-08-03T19:36:40.588Z,19.54
2022-08-03T19:39:11.200Z,19.66
2022-08-03T19:41:42.592Z,19.62
2022-08-03T19:44:11.679Z,19.56
2022-08-03T19:46:43.678Z,19.58
2022-08-03T19:49:15.143Z,19.47
2022-08-03T19:52:02.345Z,19.53
2022-08-03T19:54:52.914Z,19.44
2022-08-03T19:57:24.044Z,19.32
2022-08-03T19:59:52.840Z,19.25
2022-08-03T20:02:27.145Z,19.33
2022-08-03T20:04:57.293Z,19.21
2022-08-03T20:07:25.782Z,19.09
2022-08-03T20:09:54.586Z,18.83
2022-08-03T20:12:28.846Z,19.01
2022-08-03T20:14:59.411Z,19.12
2022-08-03T20:17:54.779Z,18.74
2022-08-03T20:20:18.702Z,18.75
2022-08-03T20:22:48.267Z,18.75
2022-08-03T20:25:20.655Z,18.76
2022-08-03T20:28:06.706Z,18.90
2022-08-03T20:30:35.819Z,18.88
2022-08-03T20:33:05.001Z,18.89
2022-08-03T20:35:34.494Z,18.75
2022-08-03T20:38:01.766Z,18.66
2022-08-03T20:40:29.351Z,18.73
2022-08-03T20:42:56.624Z,18.80
2022-08-03T20:45:58.974Z,18.79
2022-08-03T20:48:11.489Z,18.67
2022-08-03T20:50:43.738Z,18.66
2022-08-03T20:53:12.757Z,18.45
2022-08-03T20:55:47.752Z,18.36
2022-08-03T20:58:28.430Z,18.32
2022-08-03T21:00:57.019Z,18.24
2022-08-03T21:03:24.180Z,18.06
2022-08-03T21:06:10.086Z,17.88
2022-08-03T21:08:46.853Z,17.92
2022-08-03T21:11:19.286Z,17.52
2022-08-03T21:13:00.961Z,20.32
2022-08-03T21:13:03.947Z,22.17
2022-08-03T21:13:52.110Z,17.62
2022-08-03T21:16:20.204Z,17.72
2022-08-03T21:18:51.819Z,17.48
2022-08-03T21:21:20.614Z,17.60
2022-08-03T21:23:55.240Z,17.74
2022-08-03T21:26:24.254Z,17.83
2022-08-03T21:28:52.668Z,17.85
2022-08-03T21:31:24.322Z,17.58
2022-08-03T21:33:53.332Z,17.42
2022-08-03T21:36:20.531Z,17.71
2022-08-03T21:38:56.229Z,17.78
2022-08-03T21:41:25.389Z,17.59
2022-08-03T21:43:52.792Z,17.64
2022-08-03T21:46:20.152Z,17.44
2022-08-03T21:48:48.676Z,17.72
2022-08-03T21:51:17.657Z,17.76
2022-08-03T21:54:03.231Z,17.25
2022-08-03T21:56:41.516Z,17.27
2022-08-03T21:59:09.856Z,17.36
2022-08-03T22:01:41.593Z,17.04
2022-08-03T22:04:11.865Z,17.16
2022-08-03T22:06:42.537Z,17.22
2022-08-03T22:09:11.837Z,17.03
2022-08-03T22:11:39.204Z,17.17
2022-08-03T22:14:06.443Z,16.92
2022-08-03T22:16:34.315Z,17.18
2022-08-03T22:19:01.564Z,17.18
2022-08-03T22:21:35.803Z,17.00
2022-08-03T22:24:05.201Z,17.12
2022-08-03T22:26:35.389Z,17.06
2022-08-03T22:29:06.254Z,16.79
2022-08-03T22:31:58.258Z,16.70
2022-08-03T22:34:26.811Z,16.55
2022-08-03T22:36:57.242Z,16.44
2022-08-03T22:39:29.066Z,16.35
2022-08-03T22:41:57.902Z,16.51
2022-08-03T22:44:27.413Z,16.51
2022-08-03T22:46:55.571Z,16.47
2022-08-03T22:49:23.263Z,16.51
2022-08-03T22:51:53.754Z,16.55
2022-08-03T22:54:21.107Z,16.69
2022-08-03T22:56:49.469Z,16.73
2022-08-03T22:59:39.153Z,16.70
2022-08-03T23:02:20.711Z,16.64
2022-08-03T23:04:52.435Z,16.61
2022-08-03T23:07:22.179Z,16.72
2022-08-03T23:09:49.882Z,16.53
2022-08-03T23:12:20.483Z,16.49
2022-08-03T23:14:53.474Z,16.51
2022-08-03T23:17:22.651Z,16.36
2022-08-03T23:19:51.442Z,16.38
2022-08-03T23:22:29.640Z,16.16
2022-08-03T23:24:59.436Z,15.94
2022-08-03T23:27:27.558Z,15.93
2022-08-03T23:29:57.663Z,15.67
2022-08-03T23:32:29.547Z,15.99
2022-08-03T23:35:17.358Z,16.09
2022-08-03T23:38:04.257Z,16.12
2022-08-03T23:40:33.342Z,16.16
2022-08-03T23:43:01.616Z,16.01
2022-08-03T23:45:31.417Z,16.08
2022-08-03T23:47:58.546Z,15.89
2022-08-03T23:50:27.929Z,15.84
2022-08-03T23:53:12.192Z,15.87
2022-08-03T23:55:54.796Z,15.93
2022-08-03T23:58:24.942Z,16.07
